Time;durP1;ratioP1;P1;durP2;ratioP2;P2;SDS_P1;SDS_P2;PMS_P1;PMS_P2;Temp;Humidity;BMP_temperature;BMP_pressure;BME280_temperature;BME280_humidity;BME280_pressure;Samples;Min_cycle;Max_cycle;Signal;HPM_P1;HPM_P2
2022/12/17 13:08:40;;;;;;;;;;;;;;;;;;;;;
2022/12/17 13:12:05;;;;;;;40.33;16.33;;;0.30;99.90;;;;;;5073396;28;20053;-84
2022/12/17 13:15:02;;;;;;;40.42;15.00;;;0.70;99.90;;;;;;5054036;28;20393;-84
2022/12/17 13:18:08;;;;;;;43.20;15.60;;;0.30;99.90;;;;;;5044839;28;20083;-84
2022/12/17 13:21:30;;;;;;;36.08;15.18;;;0.30;99.90;;;;;;5047929;28;20045;-81
2022/12/17 13:24:25;;;;;;;38.13;15.45;;;0.40;99.90;;;;;;5053316;28;20084;-84
2022/12/17 13:27:29;;;;;;;39.63;15.88;;;0.40;99.90;;;;;;5034062;28;20045;-82
2022/12/17 13:30:52;;;;;;;40.65;17.15;;;0.20;99.90;;;;;;5018795;28;20099;-85
2022/12/17 13:33:56;;;;;;;39.47;14.43;;;0.30;99.90;;;;;;5016602;28;20132;-84
2022/12/17 13:37:20;;;;;;;;;;;;;;;;;;;;;
2022/12/17 13:40:54;;;;;;;36.72;14.05;;;0.20;99.90;;;;;;5034538;28;20076;-84
2022/12/17 13:44:20;;;;;;;40.80;16.90;;;0.20;99.90;;;;;;5041427;28;20041;-85
2022/12/17 13:47:23;;;;;;;38.30;15.05;;;-0.70;99.90;;;;;;5035933;28;20060;-85
2022/12/17 13:50:14;;;;;;;;;;;;;;;;;;;;;
2022/12/17 13:53:12;;;;;;;40.58;17.13;;;0.10;99.90;;;;;;5053818;28;20045;-85
2022/12/17 13:56:33;;;;;;;;;;;;;;;;;;;;;
2022/12/17 13:59:54;;;;;;;;;;;;;;;;;;;;;
2022/12/17 14:02:56;;;;;;;42.55;15.48;;;0.00;99.90;;;;;;5053697;28;20049;-85
2022/12/17 14:05:56;;;;;;;31.80;14.57;;;0.00;99.90;;;;;;5035451;28;20132;-86
2022/12/17 14:08:58;;;;;;;39.45;15.48;;;0.00;99.90;;;;;;5035520;28;20133;-86
2022/12/17 14:15:38;;;;;;;;;;;;;;;;;;;;;
2022/12/17 14:18:51;;;;;;;27.70;11.20;;;-0.20;99.90;;;;;;5052915;28;20110;-85
2022/12/17 14:21:56;;;;;;;33.30;12.00;;;-0.20;99.90;;;;;;5013761;28;20048;-88
2022/12/17 14:24:53;;;;;;;28.33;12.40;;;-0.30;99.90;;;;;;5011224;28;20155;-89
2022/12/17 14:27:59;;;;;;;35.15;13.85;;;0.10;99.90;;;;;;5013931;28;20085;-86
2022/12/17 14:31:37;;;;;;;38.58;13.52;;;-0.30;99.90;;;;;;5013552;28;20112;-86
2022/12/17 14:34:40;;;;;;;35.85;13.38;;;-0.40;99.90;;;;;;5013640;28;20045;-85
2022/12/17 14:37:38;;;;;;;34.92;14.02;;;-0.40;99.90;;;;;;5013634;28;20125;-86
2022/12/17 14:40:39;;;;;;;32.15;12.32;;;-0.40;99.90;;;;;;4993797;28;20046;-85
2022/12/17 14:43:25;;;;;;;33.80;12.63;;;-1.50;99.90;;;;;;4991978;28;20058;-85
2022/12/17 14:46:34;;;;;;;37.05;13.30;;;-0.50;99.90;;;;;;4953061;29;20094;-86
2022/12/17 14:49:30;;;;;;;36.13;14.00;;;-0.60;99.90;;;;;;4937228;29;20093;-87
2022/12/17 14:52:39;;;;;;;43.00;16.38;;;-0.70;99.90;;;;;;4954956;28;20452;-83
2022/12/17 14:56:01;;;;;;;34.17;12.93;;;-0.70;99.90;;;;;;4970960;28;20054;-85
2022/12/17 14:59:02;;;;;;;37.97;13.93;;;-0.70;99.90;;;;;;4956216;28;20047;-83
2022/12/17 15:02:36;;;;;;;;;;;;;;;;;;;;;
2022/12/17 15:05:35;;;;;;;;;;;;;;;;;;;;;
2022/12/17 15:08:54;;;;;;;;;;;;;;;;;;;;;
2022/12/17 15:12:08;;;;;;;36.97;14.38;;;-2.10;99.90;;;;;;4971596;28;20050;-83
2022/12/17 15:15:08;;;;;;;39.05;14.75;;;-1.00;99.90;;;;;;4934238;29;20063;-83
2022/12/17 15:17:58;;;;;;;39.00;14.43;;;-1.40;99.90;;;;;;4900939;29;20052;-86
2022/12/17 15:20:28;;;;;;;40.00;15.40;;;-1.10;99.90;;;;;;4934482;29;20060;-83
2022/12/17 15:23:24;;;;;;;37.17;13.63;;;-1.10;99.90;;;;;;4952312;29;20401;-84
2022/12/17 15:26:22;;;;;;;32.35;13.40;;;-1.20;99.90;;;;;;4921008;29;20134;-86
2022/12/17 15:29:26;;;;;;;43.17;15.05;;;-1.20;99.90;;;;;;4951111;28;20047;-86
2022/12/17 15:32:25;;;;;;;41.47;15.40;;;-1.30;99.90;;;;;;4952628;29;20571;-84
2022/12/17 15:35:26;;;;;;;41.95;15.02;;;-1.30;99.90;;;;;;4934649;29;20055;-85
2022/12/17 15:38:24;;;;;;;34.78;13.70;;;-1.40;99.90;;;;;;4989627;28;20056;-84
2022/12/17 15:44:46;;;;;;;;;;;-1.40;99.90;;;;;;4994449;28;20054;-84
2022/12/17 15:48:04;;;;;;;41.13;12.48;;;-1.50;99.90;;;;;;5016423;28;19921;-84
2022/12/17 15:51:17;;;;;;;25.83;10.23;;;-1.50;99.90;;;;;;5015827;28;20139;-84
2022/12/17 15:54:52;;;;;;;;;;;;;;;;;;;;;
2022/12/17 15:58:10;;;;;;;43.05;13.88;;;-1.60;99.90;;;;;;4974532;28;20620;-84
2022/12/17 16:01:36;;;;;;;;;;;;;;;;;;;;;
2022/12/17 16:04:54;;;;;;;;;;;;;;;;;;;;;
2022/12/17 16:08:24;;;;;;;;;;;;;;;;;;;;;
2022/12/17 16:11:46;;;;;;;35.50;13.88;;;-1.80;99.90;;;;;;4975005;28;20043;-84
2022/12/17 16:15:03;;;;;;;32.97;14.13;;;-1.80;99.90;;;;;;4975160;28;20046;-85
2022/12/17 16:18:22;;;;;;;;;;;;;;;;;;;;;
2022/12/17 16:21:52;;;;;;;;;;;;;;;;;;;;;
2022/12/17 16:25:10;;;;;;;;;;;;;;;;;;;;;
2022/12/17 16:32:34;;;;;;;;;;;;;;;;;;;;;
2022/12/17 16:35:28;;;;;;;39.72;14.93;;;-2.00;99.90;;;;;;4994032;28;20042;-81
2022/12/17 16:38:52;;;;;;;44.22;14.38;;;-2.10;99.90;;;;;;4994508;28;20438;-86
2022/12/17 16:42:10;;;;;;;39.45;12.23;;;-2.10;99.90;;;;;;4992931;28;20423;-84
2022/12/17 16:45:24;;;;;;;32.90;12.75;;;-2.10;99.90;;;;;;4992768;28;20065;-83
2022/12/17 16:48:38;;;;;;;;;;;;;;;;;;;;;
2022/12/17 16:52:04;;;;;;;;;;;;;;;;;;;;;
2022/12/17 16:55:18;;;;;;;45.20;13.80;;;-2.20;99.90;;;;;;4994725;28;20057;-83
2022/12/17 16:58:42;;;;;;;;;;;;;;;;;;;;;
2022/12/17 17:02:00;;;;;;;;;;;;;;;;;;;;;
2022/12/17 17:05:10;;;;;;;;;;;;;;;;;;;;;
2022/12/17 17:08:40;;;;;;;;;;;;;;;;;;;;;
2022/12/17 17:11:58;;;;;;;;;;;;;;;;;;;;;
2022/12/17 17:14:48;;;;;;;32.08;10.00;;;-2.40;99.90;;;;;;4973969;28;20452;-85
2022/12/17 17:17:49;;;;;;;;;;;;;;;;;;;;;
2022/12/17 17:21:07;;;;;;;26.25;10.45;;;-2.40;99.90;;;;;;4973220;28;20554;-86
2022/12/17 17:24:19;;;;;;;28.55;9.07;;;-2.50;99.90;;;;;;5009397;28;20045;-84
2022/12/17 17:27:34;;;;;;;;;;;;;;;;;;;;;
2022/12/17 17:30:54;;;;;;;34.20;11.00;;;-2.50;99.90;;;;;;5011382;28;20082;-83
2022/12/17 17:34:12;;;;;;;;;;;;;;;;;;;;;
2022/12/17 17:36:53;;;;;;;39.95;12.75;;;-2.50;99.90;;;;;;5050406;28;20053;-84
2022/12/17 17:40:08;;;;;;;;;;;;;;;;;;;;;
2022/12/17 17:43:32;;;;;;;33.50;11.32;;;-2.60;99.90;;;;;;5052042;28;20049;-86
2022/12/17 17:46:31;;;;;;;34.13;11.90;;;-2.60;99.90;;;;;;5051523;28;20122;-86
2022/12/17 17:48:59;;;;;;;42.20;12.65;;;-2.70;99.90;;;;;;5051262;28;20057;-86
2022/12/17 17:52:05;;;;;;;40.55;12.18;;;-2.60;99.90;;;;;;5047809;28;20041;-85
2022/12/17 17:54:33;;;;;;;38.60;11.07;;;-2.70;99.90;;;;;;5042538;28;20414;-86
2022/12/17 17:57:24;;;;;;;33.03;9.98;;;-2.70;99.90;;;;;;5032484;28;20076;-86
2022/12/17 18:00:20;;;;;;;32.03;10.73;;;-2.70;99.90;;;;;;5032709;28;20041;-84
2022/12/17 18:03:42;;;;;;;35.35;10.98;;;-2.70;99.90;;;;;;5033312;28;20403;-87
2022/12/17 18:07:04;;;;;;;32.00;11.32;;;-2.80;99.90;;;;;;5033489;28;20037;-91
2022/12/17 18:10:32;;;;;;;;;;;;;;;;;;;;;
2022/12/17 18:14:06;;;;;;;31.45;9.93;;;-2.20;99.90;;;;;;5033085;28;20053;-87
2022/12/17 18:17:16;;;;;;;32.65;11.00;;;-2.80;99.90;;;;;;5033408;28;20050;-87
2022/12/17 18:20:26;;;;;;;28.40;9.55;;;-2.90;99.90;;;;;;5013872;28;20124;-87
2022/12/17 18:24:00;;;;;;;;;;;;;;;;;;;;;
2022/12/17 18:27:12;;;;;;;;;;;-2.80;99.90;;;;;;5053592;28;20056;-86
2022/12/17 18:30:42;;;;;;;31.40;8.80;;;-3.00;99.90;;;;;;5052811;28;20003;-88
2022/12/17 18:33:30;;;;;;;36.30;12.00;;;-2.90;99.90;;;;;;5052083;28;20059;-85
2022/12/17 18:36:27;;;;;;;46.10;12.55;;;-2.90;99.90;;;;;;5058626;28;20052;-85
2022/12/17 18:39:30;;;;;;;;;;;;;;;;;;;;;
2022/12/17 18:45:47;;;;;;;35.78;10.45;;;-3.00;99.90;;;;;;5053104;28;20048;-84
2022/12/17 18:48:50;;;;;;;37.13;10.85;;;-3.00;99.90;;;;;;5052941;28;20045;-85
2022/12/17 18:51:21;;;;;;;30.23;10.27;;;-3.00;99.90;;;;;;4998676;28;20060;-84
2022/12/17 18:54:30;;;;;;;34.10;10.50;;;-2.10;99.90;;;;;;5034712;28;20048;-85
2022/12/17 18:57:15;;;;;;;30.05;11.02;;;-3.10;99.90;;;;;;5034686;28;20161;-87
2022/12/17 19:00:04;;;;;;;22.50;8.38;;;-3.10;99.90;;;;;;5058538;28;20047;-84
2022/12/17 19:02:55;;;;;;;29.92;9.18;;;-3.10;99.90;;;;;;5069062;28;20049;-84
2022/12/17 19:06:02;;;;;;;30.70;8.90;;;-3.10;99.90;;;;;;5028535;28;20114;-86
2022/12/17 19:09:11;;;;;;;32.25;9.05;;;-3.10;99.90;;;;;;5052464;28;20041;-88
2022/12/17 19:12:31;;;;;;;;;;;;;;;;;;;;;
2022/12/17 19:15:06;;;;;;;30.17;9.82;;;-4.30;99.90;;;;;;5002249;28;20144;-86
2022/12/17 19:17:38;;;;;;;29.75;10.73;;;-3.20;99.90;;;;;;5034378;28;20464;-81
2022/12/17 19:20:36;;;;;;;33.33;10.27;;;-3.20;99.90;;;;;;5038444;28;20091;-84
2022/12/17 19:23:44;;;;;;;32.78;11.45;;;-3.20;99.90;;;;;;5054976;28;20056;-83
2022/12/17 19:26:34;;;;;;;33.13;10.43;;;-3.20;99.90;;;;;;5056327;28;20045;-85
2022/12/17 19:29:16;;;;;;;33.22;10.93;;;-3.20;99.90;;;;;;5042066;28;20138;-87
2022/12/17 19:32:30;;;;;;;;;;;;;;;;;;;;;
2022/12/17 19:36:00;;;;;;;32.15;10.75;;;-3.20;99.90;;;;;;5056523;28;20048;-86
2022/12/17 19:39:02;;;;;;;33.15;10.35;;;-3.20;99.90;;;;;;5037843;28;20114;-85
2022/12/17 19:42:30;;;;;;;43.20;13.02;;;-3.20;99.90;;;;;;5056632;28;20048;-86
2022/12/17 19:45:50;;;;;;;32.80;10.68;;;-3.20;99.90;;;;;;5058006;28;20098;-85
2022/12/17 19:49:12;;;;;;;26.98;8.50;;;-3.20;99.90;;;;;;5055928;28;20263;-87
2022/12/17 19:52:32;;;;;;;;;;;;;;;;;;;;;
2022/12/17 19:55:33;;;;;;;33.00;10.35;;;-3.30;99.90;;;;;;5055462;28;20076;-86
2022/12/17 19:58:12;;;;;;;27.55;9.23;;;-3.30;99.90;;;;;;5035958;28;20441;-85
2022/12/17 20:01:18;;;;;;;32.83;10.90;;;-4.40;99.90;;;;;;5041150;28;20119;-85
2022/12/17 20:04:05;;;;;;;34.58;11.02;;;-3.30;99.90;;;;;;5074985;28;20413;-85
2022/12/17 20:07:05;;;;;;;33.40;11.48;;;-3.20;99.90;;;;;;5055589;28;20111;-87
2022/12/17 20:09:58;;;;;;;32.78;11.38;;;-3.20;99.90;;;;;;5055739;28;20052;-86
2022/12/17 20:13:08;;;;;;;26.35;9.43;;;-3.20;99.90;;;;;;5038551;28;20045;-87
2022/12/17 20:15:47;;;;;;;32.58;11.70;;;-3.20;99.90;;;;;;5055470;28;20041;-85
2022/12/17 20:18:53;;;;;;;30.80;10.98;;;-3.20;99.90;;;;;;5055378;28;20049;-82
2022/12/17 20:21:54;;;;;;;39.60;12.38;;;-3.20;99.90;;;;;;5020756;28;20049;-84
2022/12/17 20:25:08;;;;;;;35.97;11.88;;;-3.20;99.90;;;;;;5049892;28;20061;-87
2022/12/17 20:28:20;;;;;;;;;;;;;;;;;;;;;
2022/12/17 20:31:44;;;;;;;;;;;;;;;;;;;;;
2022/12/17 20:34:52;;;;;;;32.63;10.23;;;-3.20;99.90;;;;;;5004009;28;20088;-87
2022/12/17 20:38:10;;;;;;;;;;;;;;;;;;;;;
2022/12/17 20:41:56;;;;;;;;;;;;;;;;;;;;;
2022/12/17 20:44:38;;;;;;;27.52;9.23;;;-3.30;99.90;;;;;;5054768;28;20080;-86
2022/12/17 20:47:04;;;;;;;26.27;9.15;;;-3.30;99.90;;;;;;5055039;28;20037;-83
2022/12/17 20:49:31;;;;;;;34.30;12.18;;;-3.40;99.90;;;;;;5037298;28;20405;-84
2022/12/17 20:51:57;;;;;;;31.38;11.15;;;-3.30;99.90;;;;;;5037504;28;20071;-82
2022/12/17 20:54:24;;;;;;;28.80;10.18;;;-2.30;99.90;;;;;;5035254;28;20132;-84
2022/12/17 20:56:50;;;;;;;32.83;12.02;;;-3.40;99.90;;;;;;5054435;28;20080;-84
2022/12/17 20:59:17;;;;;;;26.33;10.40;;;-2.50;99.90;;;;;;5053123;28;20048;-85
2022/12/17 21:01:45;;;;;;;33.78;11.55;;;-3.40;99.90;;;;;;5036622;28;20131;-82
2022/12/17 21:04:13;;;;;;;28.95;10.38;;;-3.30;99.90;;;;;;5037168;28;20103;-83
2022/12/17 21:06:44;;;;;;;28.05;10.63;;;-3.40;99.90;;;;;;5054264;28;20080;-80
2022/12/17 21:09:13;;;;;;;33.17;11.75;;;-3.40;99.90;;;;;;5054567;28;20405;-83
2022/12/17 21:11:40;;;;;;;51.05;15.23;;;-3.40;99.90;;;;;;5052949;28;20049;-85
2022/12/17 21:14:11;;;;;;;35.63;12.82;;;-3.40;99.90;;;;;;5054299;28;20362;-82
2022/12/17 21:16:38;;;;;;;33.97;13.80;;;-3.40;99.90;;;;;;5054081;28;20043;-83
2022/12/17 21:19:07;;;;;;;35.20;12.70;;;-3.40;99.90;;;;;;5054737;28;20049;-82
2022/12/17 21:21:39;;;;;;;31.60;11.85;;;-3.40;99.90;;;;;;5054291;28;20048;-84
2022/12/17 21:24:08;;;;;;;36.20;14.00;;;-3.40;99.90;;;;;;5054665;28;20049;-82
2022/12/17 21:26:38;;;;;;;40.22;12.48;;;-3.30;99.90;;;;;;5054592;28;20060;-84
2022/12/17 21:29:08;;;;;;;36.58;13.40;;;-3.40;99.90;;;;;;5070252;28;20518;-84
2022/12/17 21:31:39;;;;;;;36.33;12.23;;;-3.40;99.90;;;;;;5053819;28;20124;-84
2022/12/17 21:34:10;;;;;;;34.35;13.05;;;-3.50;99.90;;;;;;5054523;28;20087;-87
2022/12/17 21:36:36;;;;;;;39.38;13.27;;;-3.50;99.90;;;;;;5054057;28;20049;-82
2022/12/17 21:39:04;;;;;;;36.70;13.93;;;-3.50;99.90;;;;;;5053411;28;20053;-87
2022/12/17 21:41:34;;;;;;;39.75;13.88;;;-3.50;99.90;;;;;;5053102;28;20046;-82
2022/12/17 21:44:04;;;;;;;30.42;12.50;;;-2.70;99.90;;;;;;5054095;28;21171;-84
2022/12/17 21:46:32;;;;;;;37.58;13.65;;;-3.50;99.90;;;;;;5036566;28;20049;-84
2022/12/17 21:49:01;;;;;;;30.23;12.07;;;-3.50;99.90;;;;;;5053866;28;20048;-83
2022/12/17 21:51:29;;;;;;;32.38;11.52;;;-3.50;99.90;;;;;;5054149;28;20052;-80
2022/12/17 21:53:59;;;;;;;39.17;13.75;;;-3.60;99.90;;;;;;5053704;28;20049;-81
2022/12/17 21:56:26;;;;;;;42.78;12.90;;;-3.50;99.90;;;;;;5053749;28;20441;-88
2022/12/17 21:58:58;;;;;;;34.03;12.35;;;-3.50;99.90;;;;;;5053772;28;20045;-85
2022/12/17 22:01:30;;;;;;;39.15;13.15;;;-3.60;99.90;;;;;;5053862;28;20045;-84
2022/12/17 22:04:03;;;;;;;32.60;12.65;;;-3.60;99.90;;;;;;5053450;28;20037;-84
2022/12/17 22:06:32;;;;;;;52.17;17.05;;;-3.60;99.90;;;;;;5053866;28;20072;-83
2022/12/17 22:08:59;;;;;;;36.88;12.80;;;-3.60;99.90;;;;;;5053770;28;20041;-87
2022/12/17 22:11:27;;;;;;;45.47;15.57;;;-3.60;99.90;;;;;;5035545;28;20493;-88
2022/12/17 22:14:02;;;;;;;41.85;14.45;;;-3.50;99.90;;;;;;5053834;28;20133;-88
2022/12/17 22:16:41;;;;;;;38.72;14.40;;;-3.50;99.90;;;;;;5053880;28;20059;-84
2022/12/17 22:19:15;;;;;;;37.95;13.88;;;-3.60;99.90;;;;;;5035714;28;20041;-85
2022/12/17 22:21:46;;;;;;;37.88;13.57;;;-3.60;99.90;;;;;;5036691;28;20569;-83
2022/12/17 22:24:16;;;;;;;28.42;11.13;;;-3.60;99.90;;;;;;5053053;28;20045;-84
2022/12/17 22:26:44;;;;;;;34.70;10.98;;;-3.60;99.90;;;;;;5053303;28;20061;-84
2022/12/17 22:32:58;;;;;;;36.35;12.68;;;-3.60;99.90;;;;;;5052263;28;20083;-84
2022/12/17 22:34:48;;;;;;;33.47;12.40;;;-3.70;99.90;;;;;;5054055;28;20462;-84
2022/12/17 22:37:15;;;;;;;33.97;13.45;;;-3.70;99.90;;;;;;5035182;28;20041;-84
2022/12/17 22:39:43;;;;;;;34.88;15.18;;;-3.70;99.90;;;;;;5036094;28;20045;-84
2022/12/17 22:44:55;;;;;;;29.73;11.20;;;-3.70;99.90;;;;;;5035765;28;20048;-85
2022/12/17 22:47:25;;;;;;;36.38;12.35;;;-3.80;99.90;;;;;;5053292;28;20510;-85
2022/12/17 22:49:52;;;;;;;32.40;11.55;;;-3.80;99.90;;;;;;5053129;28;20045;-85
2022/12/17 22:52:20;;;;;;;35.88;11.63;;;-3.80;99.90;;;;;;5052048;28;20045;-87
2022/12/17 22:54:48;;;;;;;33.83;12.65;;;-3.80;99.90;;;;;;5052578;28;20045;-83
2022/12/17 22:57:15;;;;;;;38.13;11.35;;;-3.80;99.90;;;;;;5053199;28;20037;-82
2022/12/17 22:59:44;;;;;;;35.50;12.15;;;-3.80;99.90;;;;;;5053449;28;20033;-84
2022/12/17 23:02:54;;;;;;;;;;;;;;;;;;;;;
2022/12/17 23:06:14;;;;;;;38.67;13.15;;;-3.80;99.90;;;;;;5052676;28;20079;-84
2022/12/17 23:09:46;;;;;;;;;;;;;;;;;;;;;
2022/12/17 23:12:58;;;;;;;32.50;11.38;;;-3.90;99.90;;;;;;5045469;28;20123;-82
2022/12/17 23:15:56;;;;;;;29.85;10.52;;;-3.90;99.90;;;;;;5052373;28;20052;-85
2022/12/17 23:19:00;;;;;;;28.90;11.88;;;-3.90;99.90;;;;;;5051520;28;20045;-84
2022/12/17 23:22:26;;;;;;;43.47;13.77;;;-3.90;99.90;;;;;;5052213;28;20080;-85
2022/12/17 23:25:32;;;;;;;;;;;;;;;;;;;;;
2022/12/17 23:28:55;;;;;;;40.08;12.43;;;-3.90;99.90;;;;;;5010846;28;20053;-84
2022/12/17 23:32:01;;;;;;;31.80;12.10;;;-3.80;99.90;;;;;;4971783;28;20058;-84
2022/12/17 23:35:16;;;;;;;35.13;14.63;;;-3.80;99.90;;;;;;4930801;28;20055;-82
2022/12/17 23:38:46;;;;;;;32.95;12.77;;;-3.80;99.90;;;;;;4971706;28;20047;-83
2022/12/17 23:41:57;;;;;;;40.20;12.88;;;-3.80;99.90;;;;;;4971247;28;20455;-83
2022/12/17 23:44:52;;;;;;;37.97;12.75;;;-3.80;99.90;;;;;;4955154;28;20093;-84
2022/12/17 23:47:56;;;;;;;40.03;12.48;;;-3.80;99.90;;;;;;4971595;28;20050;-82
2022/12/17 23:51:14;;;;;;;;;;;;;;;;;;;;;
2022/12/17 23:54:07;;;;;;;34.17;11.02;;;-3.80;99.90;;;;;;4971697;28;20129;-84
2022/12/17 23:57:26;;;;;;;;;;;;;;;;;;;;;
